RUK3FQ EIDW-EGCC
Flight info
| Callsign | RUK3FQ |
|---|---|
| Flight time | 0h 39m |
| Altitude | 21000 |
| Route | BOFUM Q37 MALUD |
| Aircraft | B738/M-SDE1E2E3FGIJ1LRWY/SB1 |
Departure
| Time | 2026-05-08 06:48 |
|---|---|
| Airport | Dublin Airport (EIDW) |
Arrival
| Time | 2026-05-08 07:27 |
|---|---|
| Airport | Manchester Airport (EGCC) |
| Time | Latitude | Longitude | Altitude | Speed | Heading |
|---|---|---|---|---|---|
| 2026-05-08 06:30 | 53.43303 | -6.25255 | 210 ft | 0 kts | 5° |
| 2026-05-08 06:40 | 53.43295 | -6.25257 | 217 ft | 4 kts | 7° |
| 2026-05-08 06:40 | 53.43268 | -6.25265 | 213 ft | 4 kts | 18° |
| 2026-05-08 06:40 | 53.43244 | -6.25283 | 211 ft | 4 kts | 41° |
| 2026-05-08 06:41 | 53.43233 | -6.25314 | 210 ft | 2 kts | 93° |
| 2026-05-08 06:41 | 53.43233 | -6.25316 | 210 ft | 1 kts | 94° |
| 2026-05-08 06:44 | 53.43233 | -6.25298 | 210 ft | 3 kts | 94° |
| 2026-05-08 06:44 | 53.43230 | -6.25235 | 210 ft | 8 kts | 95° |
| 2026-05-08 06:45 | 53.43224 | -6.25126 | 213 ft | 11 kts | 95° |
| 2026-05-08 06:45 | 53.43214 | -6.24973 | 219 ft | 15 kts | 96° |
| 2026-05-08 06:45 | 53.43204 | -6.24787 | 214 ft | 17 kts | 94° |
| 2026-05-08 06:45 | 53.43195 | -6.24597 | 210 ft | 16 kts | 94° |
| 2026-05-08 06:46 | 53.43214 | -6.24426 | 212 ft | 16 kts | 28° |
| 2026-05-08 06:46 | 53.43317 | -6.24376 | 217 ft | 15 kts | 39° |
| 2026-05-08 06:46 | 53.43330 | -6.24211 | 210 ft | 15 kts | 94° |
| 2026-05-08 06:46 | 53.43322 | -6.24044 | 210 ft | 14 kts | 95° |
| 2026-05-08 06:47 | 53.43331 | -6.23889 | 215 ft | 13 kts | 57° |
| 2026-05-08 06:47 | 53.43417 | -6.23850 | 212 ft | 13 kts | 6° |
| 2026-05-08 06:47 | 53.43489 | -6.23905 | 207 ft | 8 kts | 291° |
| 2026-05-08 06:47 | 53.43494 | -6.24005 | 208 ft | 22 kts | 275° |
| 2026-05-08 06:48 | 53.43530 | -6.24703 | 220 ft | 97 kts | 276° |
| 2026-05-08 06:48 | 53.43615 | -6.26201 | 226 ft | 157 kts | 276° |
| 2026-05-08 06:48 | 53.43723 | -6.28112 | 813 ft | 166 kts | 275° |
| 2026-05-08 06:48 | 53.43791 | -6.29974 | 1774 ft | 158 kts | 282° |
| 2026-05-08 06:49 | 53.44349 | -6.31686 | 2249 ft | 186 kts | 315° |
| 2026-05-08 06:49 | 53.45353 | -6.33301 | 2638 ft | 209 kts | 314° |
| 2026-05-08 06:49 | 53.46528 | -6.34815 | 3176 ft | 219 kts | 336° |
| 2026-05-08 06:49 | 53.48030 | -6.35236 | 3828 ft | 222 kts | 358° |
| 2026-05-08 06:50 | 53.49584 | -6.35188 | 3985 ft | 224 kts | 2° |
| 2026-05-08 06:50 | 53.51096 | -6.34655 | 3989 ft | 225 kts | 27° |
| 2026-05-08 06:50 | 53.52230 | -6.32878 | 4007 ft | 232 kts | 61° |
| 2026-05-08 06:50 | 53.52651 | -6.30212 | 4020 ft | 243 kts | 87° |
| 2026-05-08 06:51 | 53.52649 | -6.27340 | 4009 ft | 246 kts | 93° |
| 2026-05-08 06:51 | 53.52574 | -6.24486 | 4012 ft | 245 kts | 94° |
| 2026-05-08 06:51 | 53.52498 | -6.21591 | 4469 ft | 249 kts | 93° |
| 2026-05-08 06:51 | 53.52432 | -6.18637 | 5002 ft | 260 kts | 93° |
| 2026-05-08 06:52 | 53.52372 | -6.15524 | 5588 ft | 272 kts | 93° |
| 2026-05-08 06:52 | 53.52315 | -6.12330 | 6505 ft | 274 kts | 93° |
| 2026-05-08 06:52 | 53.52260 | -6.09119 | 7385 ft | 277 kts | 93° |
| 2026-05-08 06:52 | 53.52109 | -6.05884 | 8216 ft | 280 kts | 102° |
| 2026-05-08 06:53 | 53.51670 | -6.02691 | 9071 ft | 282 kts | 107° |
| 2026-05-08 06:53 | 53.51160 | -5.99488 | 9930 ft | 286 kts | 107° |
| 2026-05-08 06:53 | 53.50647 | -5.96202 | 10484 ft | 300 kts | 107° |
| 2026-05-08 06:53 | 53.50114 | -5.92658 | 10721 ft | 324 kts | 106° |
| 2026-05-08 06:54 | 53.49569 | -5.88929 | 11308 ft | 334 kts | 106° |
| 2026-05-08 06:54 | 53.49069 | -5.85094 | 12053 ft | 340 kts | 98° |
| 2026-05-08 06:54 | 53.49250 | -5.81096 | 12844 ft | 348 kts | 79° |
| 2026-05-08 06:54 | 53.49812 | -5.77115 | 13671 ft | 353 kts | 77° |
| 2026-05-08 06:55 | 53.50415 | -5.73085 | 14391 ft | 359 kts | 77° |
| 2026-05-08 06:55 | 53.51022 | -5.68991 | 15156 ft | 363 kts | 77° |
| 2026-05-08 06:55 | 53.51622 | -5.64844 | 15955 ft | 367 kts | 78° |
| 2026-05-08 06:55 | 53.52214 | -5.60680 | 16885 ft | 366 kts | 78° |
| 2026-05-08 06:56 | 53.52794 | -5.56532 | 17876 ft | 364 kts | 78° |
| 2026-05-08 06:56 | 53.53370 | -5.52393 | 18756 ft | 364 kts | 79° |
| 2026-05-08 06:56 | 53.53756 | -5.48263 | 19491 ft | 362 kts | 92° |
| 2026-05-08 06:56 | 53.53686 | -5.44052 | 20290 ft | 360 kts | 96° |
| 2026-05-08 06:57 | 53.53549 | -5.39834 | 20815 ft | 362 kts | 96° |
| 2026-05-08 06:57 | 53.53410 | -5.35609 | 21062 ft | 363 kts | 96° |
| 2026-05-08 06:57 | 53.53284 | -5.31360 | 21042 ft | 363 kts | 96° |
| 2026-05-08 06:57 | 53.53173 | -5.27084 | 21056 ft | 362 kts | 95° |
| 2026-05-08 06:58 | 53.53067 | -5.22824 | 21082 ft | 379 kts | 95° |
| 2026-05-08 06:58 | 53.52953 | -5.18284 | 21076 ft | 399 kts | 95° |
| 2026-05-08 06:58 | 53.52830 | -5.13526 | 21076 ft | 416 kts | 95° |
| 2026-05-08 06:58 | 53.52676 | -5.08580 | 21070 ft | 431 kts | 96° |
| 2026-05-08 06:59 | 53.52505 | -5.03471 | 21069 ft | 445 kts | 96° |
| 2026-05-08 06:59 | 53.52328 | -4.98205 | 21068 ft | 457 kts | 95° |
| 2026-05-08 06:59 | 53.52150 | -4.92816 | 21060 ft | 465 kts | 95° |
| 2026-05-08 06:59 | 53.51969 | -4.87386 | 21046 ft | 465 kts | 95° |
| 2026-05-08 07:00 | 53.51786 | -4.81910 | 21040 ft | 461 kts | 95° |
| 2026-05-08 07:00 | 53.51604 | -4.76544 | 21044 ft | 459 kts | 95° |
| 2026-05-08 07:00 | 53.51424 | -4.71280 | 21041 ft | 458 kts | 96° |
| 2026-05-08 07:00 | 53.51238 | -4.65927 | 21048 ft | 459 kts | 96° |
| 2026-05-08 07:01 | 53.51050 | -4.60580 | 21052 ft | 459 kts | 96° |
| 2026-05-08 07:01 | 53.50859 | -4.55209 | 21055 ft | 461 kts | 96° |
| 2026-05-08 07:01 | 53.50665 | -4.49840 | 21061 ft | 462 kts | 96° |
| 2026-05-08 07:01 | 53.50469 | -4.44456 | 21056 ft | 462 kts | 96° |
| 2026-05-08 07:02 | 53.50270 | -4.39064 | 21057 ft | 462 kts | 96° |
| 2026-05-08 07:02 | 53.50069 | -4.33678 | 21057 ft | 462 kts | 96° |
| 2026-05-08 07:02 | 53.49866 | -4.28291 | 21062 ft | 462 kts | 96° |
| 2026-05-08 07:02 | 53.49660 | -4.22912 | 21052 ft | 461 kts | 96° |
| 2026-05-08 07:03 | 53.49453 | -4.17546 | 21057 ft | 460 kts | 96° |
| 2026-05-08 07:03 | 53.49244 | -4.12190 | 21057 ft | 460 kts | 96° |
| 2026-05-08 07:03 | 53.49033 | -4.06840 | 21013 ft | 459 kts | 96° |
| 2026-05-08 07:03 | 53.48820 | -4.01495 | 20655 ft | 454 kts | 96° |
| 2026-05-08 07:04 | 53.48520 | -3.96314 | 20275 ft | 438 kts | 102° |
| 2026-05-08 07:04 | 53.47765 | -3.91448 | 19874 ft | 424 kts | 112° |
| 2026-05-08 07:04 | 53.46783 | -3.86853 | 19467 ft | 413 kts | 112° |
| 2026-05-08 07:04 | 53.45813 | -3.82364 | 19061 ft | 405 kts | 112° |
| 2026-05-08 07:05 | 53.44875 | -3.77962 | 18659 ft | 397 kts | 112° |
| 2026-05-08 07:05 | 53.43968 | -3.73635 | 18251 ft | 390 kts | 112° |
| 2026-05-08 07:05 | 53.43084 | -3.69382 | 17802 ft | 383 kts | 111° |
| 2026-05-08 07:05 | 53.42217 | -3.65207 | 17408 ft | 376 kts | 111° |
| 2026-05-08 07:06 | 53.41392 | -3.61147 | 17028 ft | 370 kts | 108° |
| 2026-05-08 07:06 | 53.40987 | -3.56903 | 16611 ft | 368 kts | 96° |
| 2026-05-08 07:06 | 53.40823 | -3.52651 | 16165 ft | 364 kts | 95° |
| 2026-05-08 07:06 | 53.40688 | -3.48437 | 15728 ft | 360 kts | 95° |
| 2026-05-08 07:07 | 53.40545 | -3.44267 | 15290 ft | 357 kts | 95° |
| 2026-05-08 07:07 | 53.40387 | -3.40138 | 14880 ft | 353 kts | 95° |
| 2026-05-08 07:07 | 53.40217 | -3.36051 | 14464 ft | 350 kts | 96° |
| 2026-05-08 07:07 | 53.40040 | -3.31994 | 14053 ft | 347 kts | 96° |
| 2026-05-08 07:08 | 53.39860 | -3.27972 | 13613 ft | 345 kts | 96° |
| 2026-05-08 07:08 | 53.39680 | -3.23983 | 13167 ft | 342 kts | 96° |
| 2026-05-08 07:08 | 53.39499 | -3.20038 | 12737 ft | 338 kts | 96° |
| 2026-05-08 07:08 | 53.39328 | -3.16130 | 12343 ft | 335 kts | 93° |
| 2026-05-08 07:09 | 53.39657 | -3.12295 | 11944 ft | 334 kts | 71° |
| 2026-05-08 07:09 | 53.40691 | -3.08832 | 11571 ft | 331 kts | 61° |
| 2026-05-08 07:09 | 53.41858 | -3.05508 | 11161 ft | 330 kts | 60° |
| 2026-05-08 07:09 | 53.43031 | -3.02225 | 10773 ft | 327 kts | 60° |
| 2026-05-08 07:10 | 53.44194 | -2.98953 | 10379 ft | 326 kts | 60° |
| 2026-05-08 07:10 | 53.45343 | -2.95686 | 10005 ft | 324 kts | 60° |
| 2026-05-08 07:10 | 53.46456 | -2.92497 | 9997 ft | 309 kts | 60° |
| 2026-05-08 07:10 | 53.47517 | -2.89439 | 9946 ft | 297 kts | 61° |
| 2026-05-08 07:11 | 53.48535 | -2.86492 | 9845 ft | 287 kts | 61° |
| 2026-05-08 07:11 | 53.49527 | -2.83613 | 9634 ft | 283 kts | 61° |
| 2026-05-08 07:11 | 53.50510 | -2.80758 | 9326 ft | 282 kts | 61° |
| 2026-05-08 07:11 | 53.51490 | -2.77907 | 9029 ft | 281 kts | 61° |
| 2026-05-08 07:12 | 53.52464 | -2.75069 | 8740 ft | 280 kts | 61° |
| 2026-05-08 07:12 | 53.53388 | -2.72213 | 8516 ft | 275 kts | 71° |
| 2026-05-08 07:12 | 53.53683 | -2.69132 | 8380 ft | 263 kts | 95° |
| 2026-05-08 07:12 | 53.53519 | -2.66100 | 8146 ft | 260 kts | 98° |
| 2026-05-08 07:13 | 53.53669 | -2.63075 | 7812 ft | 265 kts | 71° |
| 2026-05-08 07:13 | 53.54492 | -2.60315 | 7577 ft | 264 kts | 61° |
| 2026-05-08 07:13 | 53.55427 | -2.57668 | 7333 ft | 263 kts | 60° |
| 2026-05-08 07:13 | 53.56369 | -2.55047 | 7139 ft | 260 kts | 60° |
| 2026-05-08 07:14 | 53.57291 | -2.52501 | 7077 ft | 250 kts | 60° |
| 2026-05-08 07:14 | 53.58178 | -2.50063 | 7067 ft | 239 kts | 60° |
| 2026-05-08 07:14 | 53.59028 | -2.47737 | 7062 ft | 228 kts | 60° |
| 2026-05-08 07:14 | 53.59856 | -2.45474 | 7066 ft | 226 kts | 60° |
| 2026-05-08 07:15 | 53.60676 | -2.43230 | 7084 ft | 230 kts | 60° |
| 2026-05-08 07:15 | 53.61534 | -2.40879 | 7098 ft | 235 kts | 60° |
| 2026-05-08 07:15 | 53.62101 | -2.39324 | 7089 ft | 236 kts | 60° |
| 2026-05-08 07:15 | 53.63232 | -2.36216 | 7081 ft | 234 kts | 60° |
| 2026-05-08 07:16 | 53.64086 | -2.33868 | 7089 ft | 239 kts | 60° |
| 2026-05-08 07:16 | 53.64976 | -2.31413 | 7098 ft | 251 kts | 60° |
| 2026-05-08 07:16 | 53.65896 | -2.28868 | 7091 ft | 256 kts | 60° |
| 2026-05-08 07:16 | 53.66820 | -2.26310 | 7088 ft | 255 kts | 60° |
| 2026-05-08 07:17 | 53.67740 | -2.23761 | 7082 ft | 254 kts | 60° |
| 2026-05-08 07:17 | 53.68360 | -2.22045 | 7077 ft | 253 kts | 60° |
| 2026-05-08 07:17 | 53.69259 | -2.19556 | 7072 ft | 251 kts | 60° |
| 2026-05-08 07:17 | 53.70164 | -2.17048 | 7076 ft | 249 kts | 60° |
| 2026-05-08 07:18 | 53.71063 | -2.14555 | 7076 ft | 248 kts | 60° |
| 2026-05-08 07:18 | 53.71959 | -2.12070 | 7083 ft | 247 kts | 60° |
| 2026-05-08 07:18 | 53.72819 | -2.09540 | 7093 ft | 250 kts | 62° |
| 2026-05-08 07:18 | 53.73703 | -2.07010 | 7036 ft | 250 kts | 60° |
| 2026-05-08 07:19 | 53.74290 | -2.04307 | 6791 ft | 246 kts | 88° |
| 2026-05-08 07:19 | 53.74004 | -2.01526 | 6511 ft | 240 kts | 120° |
| 2026-05-08 07:19 | 53.73040 | -1.99272 | 6263 ft | 236 kts | 133° |
| 2026-05-08 07:19 | 53.71941 | -1.97229 | 6007 ft | 234 kts | 142° |
| 2026-05-08 07:20 | 53.70485 | -1.96216 | 5689 ft | 228 kts | 182° |
| 2026-05-08 07:20 | 53.68948 | -1.96705 | 5498 ft | 224 kts | 195° |
| 2026-05-08 07:20 | 53.67437 | -1.97350 | 5220 ft | 225 kts | 194° |
| 2026-05-08 07:20 | 53.65917 | -1.97956 | 5000 ft | 224 kts | 194° |
| 2026-05-08 07:21 | 53.64394 | -1.98524 | 4810 ft | 224 kts | 193° |
| 2026-05-08 07:21 | 53.62877 | -1.99062 | 4626 ft | 222 kts | 193° |
| 2026-05-08 07:21 | 53.61363 | -1.99578 | 4360 ft | 222 kts | 192° |
| 2026-05-08 07:21 | 53.59846 | -2.00079 | 4123 ft | 222 kts | 192° |
| 2026-05-08 07:22 | 53.58325 | -2.00569 | 4044 ft | 224 kts | 191° |
| 2026-05-08 07:22 | 53.56801 | -2.01054 | 4005 ft | 221 kts | 191° |
| 2026-05-08 07:22 | 53.55289 | -2.01532 | 4011 ft | 221 kts | 191° |
| 2026-05-08 07:22 | 53.53773 | -2.02001 | 4024 ft | 222 kts | 191° |
| 2026-05-08 07:23 | 53.52248 | -2.02473 | 3988 ft | 222 kts | 191° |
| 2026-05-08 07:23 | 53.50743 | -2.02942 | 3994 ft | 218 kts | 191° |
| 2026-05-08 07:23 | 53.49257 | -2.03401 | 4006 ft | 217 kts | 191° |
| 2026-05-08 07:23 | 53.47769 | -2.03866 | 3960 ft | 218 kts | 193° |
| 2026-05-08 07:24 | 53.46430 | -2.05096 | 3562 ft | 225 kts | 224° |
| 2026-05-08 07:24 | 53.45333 | -2.06998 | 3201 ft | 228 kts | 226° |
| 2026-05-08 07:24 | 53.44316 | -2.08978 | 2877 ft | 226 kts | 229° |
| 2026-05-08 07:24 | 53.43343 | -2.10994 | 2575 ft | 219 kts | 230° |
| 2026-05-08 07:25 | 53.42397 | -2.12961 | 2270 ft | 215 kts | 230° |
| 2026-05-08 07:25 | 53.41472 | -2.14874 | 1993 ft | 206 kts | 230° |
| 2026-05-08 07:25 | 53.39797 | -2.18338 | 1446 ft | 177 kts | 229° |
| 2026-05-08 07:26 | 53.39050 | -2.19884 | 1194 ft | 165 kts | 230° |
| 2026-05-08 07:26 | 53.38353 | -2.21325 | 1013 ft | 151 kts | 230° |
| 2026-05-08 07:26 | 53.37716 | -2.22646 | 787 ft | 143 kts | 230° |
| 2026-05-08 07:26 | 53.37089 | -2.23945 | 600 ft | 145 kts | 231° |
| 2026-05-08 07:27 | 53.36454 | -2.25261 | 407 ft | 146 kts | 231° |
| 2026-05-08 07:27 | 53.35821 | -2.26573 | 256 ft | 139 kts | 231° |
| 2026-05-08 07:27 | 53.35316 | -2.27620 | 239 ft | 71 kts | 231° |
| 2026-05-08 07:27 | 53.35123 | -2.28020 | 229 ft | 26 kts | 231° |
| 2026-05-08 07:28 | 53.35116 | -2.28179 | 231 ft | 13 kts | 324° |
| 2026-05-08 07:28 | 53.35202 | -2.28198 | 232 ft | 13 kts | 4° |
| 2026-05-08 07:28 | 53.35288 | -2.28186 | 232 ft | 12 kts | 5° |
| 2026-05-08 07:28 | 53.35363 | -2.28174 | 233 ft | 10 kts | 8° |
| 2026-05-08 07:29 | 53.35433 | -2.28155 | 232 ft | 10 kts | 11° |
| 2026-05-08 07:29 | 53.35499 | -2.28118 | 232 ft | 10 kts | 26° |
| 2026-05-08 07:29 | 53.35551 | -2.28044 | 232 ft | 10 kts | 45° |
| 2026-05-08 07:29 | 53.35594 | -2.27960 | 232 ft | 9 kts | 50° |
| 2026-05-08 07:30 | 53.35639 | -2.27872 | 232 ft | 11 kts | 50° |
| 2026-05-08 07:30 | 53.35690 | -2.27769 | 232 ft | 13 kts | 50° |
| 2026-05-08 07:30 | 53.35709 | -2.27641 | 233 ft | 13 kts | 135° |
| 2026-05-08 07:30 | 53.35683 | -2.27545 | 232 ft | 8 kts | 70° |
| 2026-05-08 07:31 | 53.35713 | -2.27475 | 232 ft | 7 kts | 52° |
| 2026-05-08 07:31 | 53.35745 | -2.27409 | 232 ft | 7 kts | 52° |
| 2026-05-08 07:31 | 53.35776 | -2.27342 | 232 ft | 8 kts | 52° |
| 2026-05-08 07:31 | 53.35816 | -2.27260 | 232 ft | 10 kts | 53° |
| 2026-05-08 07:32 | 53.35884 | -2.27226 | 232 ft | 12 kts | 356° |
| 2026-05-08 07:32 | 53.35971 | -2.27240 | 232 ft | 12 kts | 356° |
| 2026-05-08 07:32 | 53.36000 | -2.27201 | 232 ft | 6 kts | 69° |
| 2026-05-08 07:32 | 53.36003 | -2.27132 | 232 ft | 0 kts | 90° |
| 2026-05-08 07:33 | 53.36003 | -2.27128 | 232 ft | 0 kts | 90° |